Latest Coastal Weather Observations for St Lawrence

IDQ60701

Issued at 12:05 pm EST Tuesday 23 September 2014 (issued every 10 minutes, with the page automatically refreshed every 10 minutes)

About coastal observations | Map of coastal stations | Coastal observations for QLD | Marine services | Other Formats
Station Details ID: 033210 Name: ST LAWRENCE Lat: -22.35 Lon: 149.52 Height: 9.19 m
Data from the previous 72 hours. | See also: Recent months at St Lawrence
Date/Time
EST
Temp

°C
Wind Pressure Rain
since 9am
mm
Weather Cloud Vis
km
Sea
Height
m
Swell
Dir
 
Speed
knots
Gust
knots
hPa Trend Height
m
Period
s
Dir
23/12:00pm 25.6 ENE 10 18 1021.6 - 0.0 - - - - - - -
23/11:30am 25.0 E 10 18 1022.1 - 0.0 - - - - - - -
23/11:00am 24.9 E 8 12 1022.4 - 0.0 - - - - - - -
23/10:30am 23.8 E 10 15 1022.8 - 0.0 - - - - - - -
23/10:00am 23.8 E 9 15 1022.9 - 0.0 - - - - - - -
23/09:30am 22.5 ESE 10 13 1023.1 - 0.0 - - - - - - -
23/09:00am 21.1 SE 7 11 1023.2 - 39.0 - - - - - - -
23/08:30am 19.8 SE 5 8 1023.3 - 39.0 - - - - - - -
23/08:00am 19.2 S 6 10 1022.7 - 39.0 - - - - - - -
23/07:30am 17.8 S 8 12 1022.5 - 39.0 - - - - - - -
23/07:00am 17.0 S 8 11 1022.2 - 39.0 - - - - - - -
23/06:30am 16.1 S 7 10 1021.8 - 39.0 - - - - - - -
23/06:00am 16.0 S 7 10 1021.5 - 39.0 - - - - - - -
23/05:30am 16.0 S 7 11 1021.3 - 39.0 - - - - - - -
23/05:00am 16.0 S 6 7 1021.1 - 39.0 - - - - - - -
23/04:30am 16.0 S 7 10 1020.9 - 39.0 - - - - - - -
23/04:00am 16.3 SSE 6 9 1020.7 - 38.8 - - - - - - -
23/03:30am 16.2 S 5 7 1020.4 - 38.8 - - - - - - -
23/03:00am 16.1 S 5 7 1020.4 - 38.8 - - - - - - -
23/02:30am 16.5 S 6 9 1020.8 - 38.8 - - - - - - -
23/02:00am 16.6 S 6 8 1021.1 - 38.8 - - - - - - -
23/01:30am 16.5 S 6 8 1021.3 - 38.8 - - - - - - -
23/01:00am 16.7 S 6 9 1021.4 - 38.8 - - - - - - -
23/12:30am 16.7 S 5 7 1021.5 - 38.8 - - - - - - -
23/12:00am 16.9 S 5 8 1021.9 - 38.8 - - - - - - -
 
Date/Time
EST
Temp

°C
Wind Pressure Rain
since 9am
mm
Weather Cloud Vis
km
Sea
Height
m
Swell
Dir
 
Speed
knots
Gust
knots
hPa Trend Height
m
Period
s
Dir
22/11:30pm 17.3 SSE 5 8 1022.0 - 38.8 - - - - - - -
22/11:00pm 17.5 SE 6 10 1022.5 - 38.8 - - - - - - -
22/10:30pm 17.1 SW 3 4 1022.6 - 38.8 - - - - - - -
22/10:00pm 16.9 SSE 6 8 1022.4 - 38.6 - - - - - - -
22/09:30pm 16.9 SW 3 5 1022.3 - 38.6 - - - - - - -
22/09:00pm 17.2 S 4 7 1022.3 - 38.6 Recent precip. - - - - - -
22/08:30pm 17.5 SE 7 10 1022.1 - 38.6 - - - - - - -
22/08:00pm 17.4 SE 11 17 1021.5 - 38.4 - - - - - - -
22/07:30pm 16.9 SSE 2 5 1022.0 - 38.4 - - - - - - -
22/07:00pm 16.8 S 2 4 1022.0 - 37.6 - - - - - - -
22/06:30pm 16.9 WSW 4 5 1021.7 - 35.4 - - - - - - -
22/06:00pm 16.9 SW 5 7 1021.0 - 35.0 Rain - - - - - -
22/05:30pm 17.1 SW 5 7 1021.1 - 33.4 - - - - - - -
22/05:00pm 17.3 WSW 5 8 1020.6 - 30.2 - - - - - - -
22/04:30pm 17.3 SW 7 10 1019.6 - 27.6 - - - - - - -
22/04:00pm 17.6 S 7 9 1019.4 - 24.2 - - - - - - -
22/03:30pm 18.1 S 6 9 1018.9 - 21.0 - - - - - - -
22/03:00pm 19.1 NE 5 12 1019.1 - 18.0 Rain - - - - - -
22/02:30pm 19.2 ENE 1 4 1018.8 - 14.4 - - - - - - -
22/02:00pm 19.0 NE 8 14 1018.8 - 12.4 - - - - - - -
22/01:30pm 18.9 NE 3 4 1018.8 - 8.8 - - - - - - -
22/01:00pm 19.0 ESE 6 9 1018.9 - 4.2 - - - - - - -
22/12:30pm 19.3 S 4 8 1019.3 - 0.8 - - - - - - -
22/12:00pm 20.9 SSE 5 7 1019.5 - 0.0 - - - - - - -
22/11:30am 21.3 S 7 9 1020.0 - 0.0 - - - - - - -
22/11:00am 21.4 SSE 6 9 1020.9 - 0.0 - - - - - - -
22/10:30am 21.7 SE 6 11 1021.2 - 0.0 - - - - - - -
22/10:00am 20.7 SSE 7 13 1021.2 - 0.0 - - - - - - -
22/09:30am 20.0 SSE 7 11 1021.4 - 0.0 - - - - - - -
22/09:00am 19.3 SSE 8 12 1021.5 - 4.8 - - - - - - -
22/08:30am 18.2 SSE 6 10 1021.4 - 4.8 - - - - - - -
22/08:00am 17.2 S 6 10 1021.6 - 4.8 - - - - - - -
22/07:30am 17.0 S 6 9 1021.4 - 4.8 - - - - - - -
22/07:00am 16.2 SSE 2 5 1021.2 - 4.8 - - - - - - -
22/06:30am 16.0 S 5 7 1020.8 - 4.4 - - - - - - -
22/06:00am 16.1 CALM 0 0 1020.6 - 3.4 Rain - - - - - -
22/05:30am 16.2 S 4 7 1020.0 - 0.8 - - - - - - -
22/05:00am 16.5 SSW 3 5 1019.7 - 0.4 - - - - - - -
22/04:30am 16.8 SSE 5 8 1019.4 - 0.4 - - - - - - -
22/04:00am 16.7 SSE 7 11 1018.8 - 0.4 - - - - - - -
22/03:30am 16.6 SSE 7 13 1019.3 - 0.4 - - - - - - -
22/03:00am 16.4 SSE 7 11 1019.0 - 0.4 - - - - - - -
22/02:30am 16.2 SSE 6 9 1019.7 - 0.4 - - - - - - -
22/02:00am 16.0 S 7 11 1020.3 - 0.4 - - - - - - -
22/01:30am 16.2 S 8 11 1020.5 - 0.2 - - - - - - -
22/01:00am 16.3 SSE 8 11 1020.6 - 0.2 - - - - - - -
22/12:30am 16.3 SSE 8 12 1021.0 - 0.0 - - - - - - -
22/12:00am 16.4 S 9 12 1021.4 - 0.0 - - - - - - -
 
Date/Time
EST
Temp

°C
Wind Pressure Rain
since 9am
mm
Weather Cloud Vis
km
Sea
Height
m
Swell
Dir
 
Speed
knots
Gust
knots
hPa Trend Height
m
Period
s
Dir
21/11:30pm 16.4 S 8 13 1021.8 - 0.0 - - - - - - -
21/11:00pm 16.4 S 10 13 1022.1 - 0.0 - - - - - - -
21/10:30pm 16.4 S 10 15 1022.3 - 0.0 - - - - - - -
21/10:00pm 16.2 S 11 15 1022.2 - 0.0 - - - - - - -
21/09:30pm 16.2 S 9 14 1022.1 - 0.0 - - - - - - -
21/09:00pm 16.4 S 10 15 1022.1 - 0.0 - - - - - - -
21/08:30pm 16.5 S 11 18 1022.1 - 0.0 - - - - - - -
21/08:00pm 16.7 S 12 18 1022.1 - 0.0 - - - - - - -
21/07:30pm 17.0 S 11 16 1021.8 - 0.0 - - - - - - -
21/07:00pm 17.9 S 13 23 1021.6 - 0.0 - - - - - - -
21/06:30pm 22.1 E 6 8 1020.7 - 0.0 - - - - - - -
21/06:00pm 22.3 E 6 9 1020.3 - 0.0 - - - - - - -
21/05:30pm 22.6 ENE 7 11 1019.7 - 0.0 - - - - - - -
21/05:00pm 22.9 NE 10 15 1019.4 - 0.0 - - - - - - -
21/04:30pm 23.2 NE 12 17 1019.2 - 0.0 - - - - - - -
21/04:00pm 23.6 NE 12 17 1019.0 - 0.0 - - - - - - -
21/03:30pm 24.2 NE 13 19 1019.2 - 0.0 - - - - - - -
21/03:00pm 25.1 NE 13 19 1019.3 - 0.0 - - - - - - -
21/02:30pm 25.2 NE 13 20 1019.4 - 0.0 - - - - - - -
21/02:00pm 25.2 NNE 14 19 1019.7 - 0.0 - - - - - - -
21/01:30pm 25.3 NNE 14 19 1020.0 - 0.0 - - - - - - -
21/01:00pm 25.5 NE 13 19 1019.9 - 0.0 - - - - - - -
21/12:30pm 24.6 NE 11 17 1020.3 - 0.0 - - - - - - -
21/12:00pm 24.9 NE 14 20 1020.6 - 0.0 - - - - - - -
21/11:30am 25.3 NE 12 19 1020.8 - 0.0 - - - - - - -
21/11:00am 25.3 NE 13 19 1021.1 - 0.0 - - - - - - -
21/10:30am 24.2 ENE 11 19 1021.3 - 0.0 - - - - - - -
21/10:00am 24.7 ENE 12 18 1021.6 - 0.0 - - - - - - -
21/09:30am 23.9 NE 10 17 1021.5 - 0.0 - - - - - - -
21/09:00am 24.2 E 10 18 1021.4 - 0.0 - - - - - - -
21/08:30am 23.3 ENE 10 16 1021.2 - 0.0 - - - - - - -
21/08:00am 22.3 E 6 9 1020.8 - 0.0 - - - - - - -
21/07:30am 20.4 ESE 6 9 1020.7 - 0.0 - - - - - - -
21/07:00am 18.8 SE 5 7 1020.6 - 0.0 - - - - - - -
21/06:30am 17.9 SSE 4 6 1020.2 - 0.0 - - - - - - -
21/06:00am 18.3 SSE 5 8 1019.8 - 0.0 - - - - - - -
21/05:30am 18.9 SE 5 8 1019.4 - 0.0 - - - - - - -
21/05:00am 19.5 SE 5 7 1019.0 - 0.0 - - - - - - -
21/04:30am 19.4 SE 4 6 1018.6 - 0.0 - - - - - - -
21/04:00am 20.1 ESE 5 6 1018.1 - 0.0 - - - - - - -
21/03:30am 20.7 E 6 10 1018.1 - 0.0 - - - - - - -
21/03:00am 20.7 E 5 7 1018.4 - 0.0 - - - - - - -
21/02:30am 20.7 E 5 7 1018.3 - 0.0 - - - - - - -
21/02:00am 20.8 E 4 7 1018.6 - 0.0 - - - - - - -
21/01:30am 21.1 E 4 7 1019.0 - 0.0 - - - - - - -
21/01:00am 21.1 ENE 4 6 1019.2 - 0.0 - - - - - - -
21/12:30am 21.2 ENE 4 7 1019.3 - 0.0 - - - - - - -
21/12:00am 21.2 ENE 3 6 1019.5 - 0.0 - - - - - - -
 
Date/Time
EST
Temp

°C
Wind Pressure Rain
since 9am
mm
Weather Cloud Vis
km
Sea
Height
m
Swell
Dir
 
Speed
knots
Gust
knots
hPa Trend Height
m
Period
s
Dir
20/11:30pm 21.3 NE 6 9 1019.5 - 0.0 - - - - - - -
20/11:00pm 21.4 NE 5 8 1019.7 - 0.0 - - - - - - -
20/10:30pm 21.1 ENE 4 6 1019.8 - 0.0 - - - - - - -
20/10:00pm 21.0 ENE 4 5 1019.9 - 0.0 - - - - - - -
20/09:30pm 21.2 ENE 6 10 1019.8 - 0.0 - - - - - - -
20/09:00pm 21.3 NE 7 9 1019.7 - 0.0 - - - - - - -
20/08:30pm 21.4 NE 7 10 1019.5 - 0.0 - - - - - - -
20/08:00pm 21.4 NE 6 9 1019.1 - 0.0 - - - - - - -
20/07:30pm 21.5 ENE 5 9 1018.7 - 0.0 - - - - - - -
20/07:00pm 21.7 NE 8 11 1018.1 - 0.0 - - - - - - -
20/06:30pm 21.7 NNE 8 11 1017.5 - 0.0 - - - - - - -
20/06:00pm 21.9 NNE 9 13 1016.7 - 0.0 - - - - - - -
20/05:30pm 22.6 NNE 11 15 1016.2 - 0.0 - - - - - - -
20/05:00pm 23.2 NNE 11 15 1015.9 - 0.0 - - - - - - -
20/04:30pm 23.7 NNE 11 14 1015.5 - 0.0 - - - - - - -
20/04:00pm 24.1 NNE 12 17 1015.3 - 0.0 - - - - - - -
20/03:30pm 25.1 NNE 13 17 1014.9 - 0.0 - - - - - - -
20/03:00pm 25.8 NNE 13 17 1014.8 - 0.0 - - - - - - -
20/02:30pm 26.7 NNE 11 14 1015.0 - 0.0 - - - - - - -
20/02:00pm 26.4 NNE 11 15 1015.3 - 0.0 - - - - - - -
20/01:30pm 26.6 NNE 11 15 1015.7 - 0.0 - - - - - - -
20/01:00pm 26.6 NE 11 15 1016.4 - 0.0 - - - - - - -
20/12:30pm 26.1 NE 11 14 1016.8 - 0.0 - - - - - - -

Other Formats:

Comma delimited format used in spreadsheet applications
http://www.bom.gov.au/fwo/IDQ60701/IDQ60701.95369.axf

JavaScript Object Notation format (JSON) in row-major order
http://www.bom.gov.au/fwo/IDQ60701/IDQ60701.95369.json